createdAt,value
2023-02-08T00:00:53.953Z,20.33
2023-02-08T00:03:20.577Z,20.48
2023-02-08T00:05:47.123Z,19.98
2023-02-08T00:08:13.616Z,18.10
2023-02-08T00:10:40.548Z,18.77
2023-02-08T00:13:09.409Z,19.52
2023-02-08T00:15:40.535Z,18.08
2023-02-08T00:18:07.040Z,20.17
2023-02-08T00:20:33.601Z,19.90
2023-02-08T00:23:00.131Z,19.45
2023-02-08T00:25:26.588Z,20.63
2023-02-08T00:27:53.099Z,20.38
2023-02-08T00:30:19.678Z,20.10
2023-02-08T00:32:47.667Z,20.48
2023-02-08T00:35:14.430Z,21.08
2023-02-08T00:37:42.419Z,21.80
2023-02-08T00:40:10.969Z,20.23
2023-02-08T00:42:37.743Z,21.50
2023-02-08T00:45:05.021Z,21.42
2023-02-08T00:47:31.592Z,21.15
2023-02-08T00:49:59.740Z,20.15
2023-02-08T00:52:27.622Z,21.42
2023-02-08T00:54:54.278Z,20.83
2023-02-08T00:57:20.877Z,20.20
2023-02-08T00:59:47.850Z,19.83
2023-02-08T01:02:15.695Z,20.05
2023-02-08T01:04:42.224Z,21.25
2023-02-08T01:07:09.101Z,19.88
2023-02-08T01:09:37.555Z,21.42
2023-02-08T01:12:04.093Z,19.45
2023-02-08T01:14:30.822Z,20.33
2023-02-08T01:16:58.633Z,20.95
2023-02-08T01:19:25.122Z,20.83
2023-02-08T01:21:51.693Z,20.05
2023-02-08T01:24:18.166Z,20.23
2023-02-08T01:26:44.684Z,21.40
2023-02-08T01:29:11.569Z,19.95
2023-02-08T01:31:40.914Z,20.77
2023-02-08T01:34:09.073Z,19.70
2023-02-08T01:36:36.136Z,19.77
2023-02-08T01:39:04.151Z,21.02
2023-02-08T01:41:36.712Z,21.30
2023-02-08T01:44:11.930Z,19.63
2023-02-08T01:46:41.007Z,19.75
2023-02-08T01:49:14.135Z,19.95
2023-02-08T01:51:46.937Z,20.50
2023-02-08T01:54:16.892Z,19.85
2023-02-08T01:56:45.862Z,21.13
2023-02-08T01:59:28.422Z,19.48
2023-02-08T02:01:56.999Z,18.88
2023-02-08T02:04:25.481Z,19.02
2023-02-08T02:06:57.533Z,18.92
2023-02-08T02:09:47.769Z,18.67
2023-02-08T02:12:14.688Z,18.90
2023-02-08T02:14:42.948Z,19.15
2023-02-08T02:17:12.203Z,20.02
2023-02-08T02:20:06.746Z,18.88
2023-02-08T02:23:13.728Z,18.90
2023-02-08T02:26:24.226Z,19.42
2023-02-08T02:29:13.727Z,18.92
2023-02-08T02:31:52.507Z,18.40
2023-02-08T02:34:41.407Z,19.38
2023-02-08T02:37:56.257Z,18.75
2023-02-08T02:40:41.118Z,17.48
2023-02-08T02:43:40.491Z,18.15
2023-02-08T02:46:22.320Z,18.50
2023-02-08T02:48:55.142Z,17.90
2023-02-08T02:51:43.344Z,18.50
2023-02-08T02:54:21.161Z,18.45
2023-02-08T02:56:52.075Z,19.42
2023-02-08T02:59:20.162Z,20.17
2023-02-08T03:01:48.675Z,18.70
2023-02-08T03:04:39.213Z,20.10
2023-02-08T03:07:28.535Z,19.15
2023-02-08T03:10:22.862Z,20.02
2023-02-08T03:13:08.348Z,18.63
2023-02-08T03:16:01.728Z,19.52
2023-02-08T03:18:58.968Z,18.45
2023-02-08T03:21:43.424Z,19.27
2023-02-08T03:24:29.275Z,18.05
2023-02-08T03:27:31.052Z,19.67
2023-02-08T03:30:03.620Z,18.65
2023-02-08T03:32:40.255Z,18.83
2023-02-08T03:35:34.171Z,18.75
2023-02-08T03:38:05.356Z,18.15
2023-02-08T03:40:37.619Z,18.85
2023-02-08T03:43:11.916Z,18.75
2023-02-08T03:45:46.364Z,17.95
2023-02-08T03:48:16.847Z,20.35
2023-02-08T03:50:48.220Z,20.08
2023-02-08T03:53:19.141Z,19.45
2023-02-08T03:55:48.472Z,18.45
2023-02-08T03:58:42.927Z,19.98
2023-02-08T04:01:17.749Z,18.35
2023-02-08T04:03:46.382Z,19.25
2023-02-08T04:06:13.514Z,18.60
2023-02-08T04:08:40.158Z,18.25
2023-02-08T04:11:06.641Z,17.88
2023-02-08T04:13:33.271Z,19.88
2023-02-08T04:15:59.794Z,19.38
2023-02-08T04:18:27.705Z,18.98
2023-02-08T04:20:54.243Z,18.92
2023-02-08T04:23:20.867Z,18.70
2023-02-08T04:25:47.332Z,20.35
2023-02-08T04:28:13.874Z,19.08
2023-02-08T04:30:40.804Z,18.17
2023-02-08T04:33:07.533Z,18.50
2023-02-08T04:35:34.295Z,19.27
2023-02-08T04:38:00.792Z,19.15
2023-02-08T04:40:27.334Z,18.52
2023-02-08T04:42:53.826Z,18.20
2023-02-08T04:45:20.594Z,18.88
2023-02-08T04:47:54.371Z,19.27
2023-02-08T04:50:21.403Z,19.15
2023-02-08T04:52:47.901Z,18.98
2023-02-08T04:55:14.496Z,18.27
2023-02-08T04:57:41.329Z,17.80
2023-02-08T05:00:08.668Z,17.70
2023-02-08T05:02:35.646Z,16.70
2023-02-08T05:05:02.245Z,17.90
2023-02-08T05:07:28.773Z,17.10
2023-02-08T05:09:55.212Z,18.27
2023-02-08T05:12:21.690Z,16.42
2023-02-08T05:14:48.120Z,16.90
2023-02-08T05:17:14.665Z,17.83
2023-02-08T05:19:41.700Z,17.73
2023-02-08T05:22:08.466Z,17.88
2023-02-08T05:24:35.033Z,19.08
2023-02-08T05:27:01.547Z,17.45
2023-02-08T05:29:28.164Z,17.77
2023-02-08T05:31:54.778Z,17.75
2023-02-08T05:34:21.276Z,17.60
2023-02-08T05:36:47.722Z,18.00
2023-02-08T05:39:14.354Z,16.95
2023-02-08T05:41:40.810Z,17.45
2023-02-08T05:44:07.262Z,17.15
2023-02-08T05:46:38.001Z,18.48
2023-02-08T05:49:04.841Z,16.95
2023-02-08T05:51:32.575Z,17.10
2023-02-08T05:53:59.177Z,17.27
2023-02-08T05:56:25.692Z,16.75
2023-02-08T05:58:52.164Z,17.60
2023-02-08T06:01:18.842Z,18.50
2023-02-08T06:03:45.536Z,17.02
2023-02-08T06:06:12.078Z,16.90
2023-02-08T06:08:39.419Z,16.80
2023-02-08T06:11:06.811Z,17.88
2023-02-08T06:13:33.355Z,18.52
2023-02-08T06:15:59.858Z,16.40
2023-02-08T06:18:27.184Z,17.02
2023-02-08T06:20:54.904Z,17.30
2023-02-08T06:23:22.090Z,18.05
2023-02-08T06:25:48.580Z,16.75
2023-02-08T06:28:15.113Z,16.67
2023-02-08T06:30:43.372Z,17.48
2023-02-08T06:33:10.095Z,15.93
2023-02-08T06:35:36.648Z,16.23
2023-02-08T06:38:03.166Z,16.33
2023-02-08T06:40:29.660Z,18.23
2023-02-08T06:42:56.567Z,17.77
2023-02-08T06:45:23.110Z,17.73
2023-02-08T06:47:49.548Z,17.60
2023-02-08T06:50:16.156Z,16.55
2023-02-08T06:52:42.659Z,16.80
2023-02-08T06:55:09.266Z,16.45
2023-02-08T06:57:36.094Z,16.95
2023-02-08T07:00:04.270Z,16.55
2023-02-08T07:02:31.118Z,16.42
2023-02-08T07:04:57.673Z,16.83
2023-02-08T07:07:24.257Z,17.77
2023-02-08T07:09:50.765Z,17.67
2023-02-08T07:12:17.273Z,17.30
2023-02-08T07:14:44.173Z,18.13
2023-02-08T07:17:12.046Z,17.25
2023-02-08T07:19:39.011Z,18.33
2023-02-08T07:22:08.902Z,18.48
2023-02-08T07:24:38.686Z,17.63
2023-02-08T07:27:07.138Z,18.38
2023-02-08T07:29:34.587Z,17.27
2023-02-08T07:32:03.559Z,19.83
2023-02-08T07:34:32.827Z,18.42
2023-02-08T07:36:59.404Z,19.17
2023-02-08T07:39:26.474Z,19.05
2023-02-08T07:41:53.170Z,17.90
2023-02-08T07:44:20.225Z,18.27
2023-02-08T07:46:46.667Z,17.85
2023-02-08T07:49:13.176Z,18.65
2023-02-08T07:51:39.649Z,18.45
2023-02-08T07:54:06.314Z,19.80
2023-02-08T07:56:32.920Z,20.20
2023-02-08T07:58:59.547Z,21.00
2023-02-08T08:01:26.158Z,20.15
2023-02-08T08:03:53.259Z,19.58
2023-02-08T08:06:21.950Z,19.05
2023-02-08T08:08:49.194Z,19.38
2023-02-08T08:11:17.679Z,19.13
2023-02-08T08:13:44.194Z,17.90
2023-02-08T08:16:10.730Z,18.83
2023-02-08T08:18:37.238Z,18.40
2023-02-08T08:21:04.781Z,18.95
2023-02-08T08:23:33.190Z,18.65
2023-02-08T08:26:00.725Z,18.88
2023-02-08T08:28:28.058Z,19.02
2023-02-08T08:30:54.874Z,18.75
2023-02-08T08:33:21.483Z,19.05
2023-02-08T08:35:48.120Z,20.40
2023-02-08T08:38:14.673Z,20.42
2023-02-08T08:40:41.448Z,19.83
2023-02-08T08:43:08.228Z,20.15
2023-02-08T08:45:36.180Z,19.48
2023-02-08T08:48:05.670Z,18.23
2023-02-08T08:50:32.228Z,19.73
2023-02-08T08:52:58.699Z,20.23
2023-02-08T08:55:26.185Z,20.50
2023-02-08T08:57:53.583Z,20.23
2023-02-08T09:00:20.180Z,18.92
2023-02-08T09:02:46.636Z,19.77
2023-02-08T09:05:13.144Z,20.02
2023-02-08T09:07:39.624Z,19.70
2023-02-08T09:10:06.470Z,20.15
2023-02-08T09:12:33.038Z,20.58
2023-02-08T09:15:00.942Z,20.00
2023-02-08T09:17:27.609Z,19.27
2023-02-08T09:19:54.127Z,19.40
2023-02-08T09:22:20.769Z,19.38
2023-02-08T09:24:47.410Z,19.88
2023-02-08T09:27:14.828Z,18.75
2023-02-08T09:29:41.478Z,17.67
2023-02-08T09:32:10.158Z,19.05
2023-02-08T09:34:37.002Z,17.77
2023-02-08T09:37:03.438Z,17.67
2023-02-08T09:39:30.048Z,18.73
2023-02-08T09:42:11.288Z,18.35
2023-02-08T09:45:04.797Z,18.83
2023-02-08T09:47:36.931Z,16.95
2023-02-08T09:50:20.686Z,16.58
2023-02-08T09:53:00.247Z,17.00
2023-02-08T09:55:39.626Z,17.42
2023-02-08T09:58:35.839Z,17.13
2023-02-08T10:01:05.935Z,15.52
2023-02-08T10:03:42.462Z,17.15
2023-02-08T10:06:13.000Z,16.75
2023-02-08T10:08:40.696Z,16.30
2023-02-08T10:11:43.195Z,17.20
2023-02-08T10:14:40.114Z,16.42
2023-02-08T10:17:26.628Z,16.45
2023-02-08T10:20:28.543Z,15.10
2023-02-08T10:23:19.372Z,14.75
2023-02-08T10:26:15.774Z,16.05
2023-02-08T10:28:56.568Z,14.65
2023-02-08T10:32:01.710Z,16.20
2023-02-08T10:34:44.251Z,14.40
2023-02-08T10:37:12.964Z,15.38
2023-02-08T10:39:39.958Z,16.08
2023-02-08T10:42:19.631Z,16.45
2023-02-08T10:45:23.869Z,16.27
2023-02-08T10:47:54.693Z,16.60
2023-02-08T10:50:39.211Z,16.63
2023-02-08T10:53:06.522Z,15.68
2023-02-08T10:55:36.628Z,17.00
2023-02-08T10:58:06.151Z,15.93
2023-02-08T11:00:36.714Z,16.33
2023-02-08T11:03:21.778Z,16.88
2023-02-08T11:05:49.364Z,16.20
2023-02-08T11:08:22.683Z,15.57
2023-02-08T11:11:05.083Z,15.95
2023-02-08T11:13:42.631Z,16.17
2023-02-08T11:16:20.188Z,16.10
2023-02-08T11:18:52.142Z,15.63
2023-02-08T11:21:24.946Z,15.32
2023-02-08T11:23:53.828Z,15.32
2023-02-08T11:26:25.322Z,14.23
2023-02-08T11:29:06.071Z,14.10
2023-02-08T11:31:35.242Z,14.82
2023-02-08T11:34:09.621Z,14.15
2023-02-08T11:36:38.324Z,15.60
2023-02-08T11:39:23.146Z,13.07
2023-02-08T11:41:53.566Z,10.98
2023-02-08T11:44:27.950Z,11.50
2023-02-08T11:46:56.549Z,11.70
2023-02-08T11:49:26.074Z,10.63
2023-02-08T11:51:53.231Z,10.48
2023-02-08T11:54:41.388Z,9.48
2023-02-08T11:57:20.619Z,9.07
2023-02-08T11:59:48.550Z,8.52
2023-02-08T12:02:31.213Z,8.70
2023-02-08T12:04:59.015Z,8.55
2023-02-08T12:07:49.393Z,8.45
2023-02-08T12:10:30.859Z,9.10
2023-02-08T12:13:24.033Z,9.02
2023-02-08T12:16:06.131Z,7.57
2023-02-08T12:18:51.233Z,8.05
2023-02-08T12:21:21.916Z,6.47
2023-02-08T12:23:53.044Z,5.00
2023-02-08T12:26:42.081Z,6.30
2023-02-08T12:29:47.677Z,6.88
2023-02-08T12:32:42.733Z,6.40
2023-02-08T12:35:45.825Z,6.00
2023-02-08T12:38:55.400Z,7.05
2023-02-08T12:41:39.302Z,7.55
2023-02-08T12:44:41.210Z,8.10
2023-02-08T12:47:27.566Z,7.22
2023-02-08T12:50:23.951Z,7.68
2023-02-08T12:52:57.231Z,7.85
2023-02-08T12:55:26.364Z,7.45
2023-02-08T12:57:57.225Z,7.03
2023-02-08T13:00:32.637Z,7.32
2023-02-08T13:03:17.599Z,8.55
2023-02-08T13:06:01.775Z,7.88
2023-02-08T13:08:31.853Z,7.10
2023-02-08T13:11:17.868Z,7.25
2023-02-08T13:14:03.334Z,8.40
2023-02-08T13:16:40.377Z,7.53
2023-02-08T13:19:18.677Z,6.35
2023-02-08T13:21:46.128Z,7.05
2023-02-08T13:24:27.760Z,7.28
2023-02-08T13:26:54.277Z,9.88
2023-02-08T13:29:23.115Z,6.93
2023-02-08T13:31:56.640Z,6.65
2023-02-08T13:34:37.048Z,7.05
2023-02-08T13:37:16.640Z,7.75
2023-02-08T13:39:48.211Z,7.38
2023-02-08T13:42:33.576Z,9.35
2023-02-08T13:45:01.356Z,7.68
2023-02-08T13:47:32.806Z,7.00
2023-02-08T13:50:01.769Z,5.60
2023-02-08T13:52:47.143Z,6.47
2023-02-08T13:55:38.220Z,7.10
2023-02-08T13:58:34.314Z,6.88
2023-02-08T14:01:12.876Z,7.10
2023-02-08T14:03:39.363Z,7.10
2023-02-08T14:06:29.472Z,6.65
2023-02-08T14:09:17.394Z,8.32
2023-02-08T14:12:00.615Z,8.30
2023-02-08T14:14:31.263Z,9.18
2023-02-08T14:17:28.920Z,8.93
2023-02-08T14:20:01.677Z,7.80
2023-02-08T14:22:36.110Z,10.38
2023-02-08T14:25:07.940Z,9.52
2023-02-08T14:27:44.823Z,9.65
2023-02-08T14:30:11.671Z,9.23
2023-02-08T14:32:40.816Z,11.15
2023-02-08T14:35:07.492Z,12.73
2023-02-08T14:37:36.419Z,11.23
2023-02-08T14:40:23.598Z,11.32
2023-02-08T14:43:02.173Z,11.20
2023-02-08T14:45:39.989Z,11.55
2023-02-08T14:48:48.426Z,12.82
2023-02-08T14:51:28.126Z,11.60
2023-02-08T14:53:58.522Z,11.85
2023-02-08T14:56:31.921Z,12.98
2023-02-08T14:59:04.421Z,12.10
2023-02-08T15:01:45.419Z,13.75
2023-02-08T15:04:14.229Z,11.98
2023-02-08T15:07:13.425Z,13.10
2023-02-08T15:09:42.465Z,20.65
2023-02-08T15:12:17.583Z,14.77
2023-02-08T15:14:44.257Z,15.32
2023-02-08T15:17:24.525Z,15.90
2023-02-08T15:19:52.333Z,15.82
2023-02-08T15:22:39.756Z,14.82
2023-02-08T15:25:30.091Z,16.05
2023-02-08T15:28:01.831Z,15.85
2023-02-08T15:30:35.061Z,17.33
2023-02-08T15:33:08.400Z,15.77
2023-02-08T15:35:35.928Z,15.48
2023-02-08T15:38:06.995Z,15.93
2023-02-08T15:40:35.074Z,16.33
2023-02-08T15:43:12.468Z,17.33
2023-02-08T15:45:39.433Z,17.38
2023-02-08T15:48:07.512Z,14.90
2023-02-08T15:50:35.829Z,15.85
2023-02-08T15:53:06.154Z,16.30
2023-02-08T15:55:44.271Z,16.67
2023-02-08T15:58:31.820Z,18.08
2023-02-08T16:01:00.622Z,19.33
2023-02-08T16:03:29.429Z,18.42
2023-02-08T16:05:59.757Z,19.08
2023-02-08T16:08:30.595Z,16.98
2023-02-08T16:11:04.395Z,18.83
2023-02-08T16:13:35.046Z,20.13
2023-02-08T16:16:15.706Z,22.67
2023-02-08T16:18:58.257Z,19.30
2023-02-08T16:21:24.680Z,21.05
2023-02-08T16:24:05.111Z,20.80
2023-02-08T16:26:36.538Z,21.25
2023-02-08T16:29:09.644Z,22.27
2023-02-08T16:31:36.539Z,22.33
2023-02-08T16:34:06.412Z,22.10
2023-02-08T16:36:40.397Z,23.17
2023-02-08T16:39:22.512Z,23.50
2023-02-08T16:42:16.034Z,22.35
2023-02-08T16:45:02.860Z,28.80
2023-02-08T16:47:38.319Z,25.00
2023-02-08T16:50:10.951Z,25.77
2023-02-08T16:52:37.531Z,31.05
2023-02-08T16:55:05.346Z,36.22
2023-02-08T16:57:47.378Z,32.78
2023-02-08T17:00:26.093Z,31.30
2023-02-08T17:02:54.216Z,37.50
2023-02-08T17:05:27.186Z,28.42
2023-02-08T17:07:55.095Z,27.98
2023-02-08T17:10:32.681Z,28.35
2023-02-08T17:13:19.389Z,27.40
2023-02-08T17:15:51.606Z,30.75
2023-02-08T17:18:22.581Z,26.20
2023-02-08T17:20:49.111Z,28.25
2023-02-08T17:23:15.848Z,27.17
2023-02-08T17:25:43.478Z,27.58
2023-02-08T17:28:18.701Z,25.60
2023-02-08T17:30:46.862Z,26.63
2023-02-08T17:33:19.826Z,26.88
2023-02-08T17:35:50.852Z,26.17
2023-02-08T17:38:19.090Z,25.70
2023-02-08T17:40:46.160Z,24.95
2023-02-08T17:43:14.917Z,24.90
2023-02-08T17:45:43.755Z,26.60
2023-02-08T17:48:13.299Z,29.30
2023-02-08T17:50:42.825Z,27.08
2023-02-08T17:53:09.926Z,25.83
2023-02-08T17:55:36.415Z,25.42
2023-02-08T17:58:02.956Z,23.73
2023-02-08T18:00:29.415Z,25.92
2023-02-08T18:03:00.477Z,24.63
2023-02-08T18:05:27.757Z,24.23
2023-02-08T18:07:56.144Z,24.83
2023-02-08T18:10:24.386Z,25.42
2023-02-08T18:12:51.301Z,31.55
2023-02-08T18:15:20.673Z,27.58
2023-02-08T18:17:48.416Z,26.75
2023-02-08T18:20:16.115Z,25.55
2023-02-08T18:22:43.473Z,25.25
2023-02-08T18:25:11.648Z,24.65
2023-02-08T18:27:38.718Z,24.02
2023-02-08T18:30:05.828Z,23.35
2023-02-08T18:32:32.334Z,24.70
2023-02-08T18:34:58.869Z,24.85
2023-02-08T18:37:27.450Z,25.98
2023-02-08T18:39:54.008Z,26.02
2023-02-08T18:42:20.501Z,22.92
2023-02-08T18:44:48.856Z,23.10
2023-02-08T18:47:15.420Z,22.88
2023-02-08T18:49:41.956Z,24.10
2023-02-08T18:52:13.751Z,23.63
2023-02-08T18:54:41.301Z,21.63
2023-02-08T18:57:11.472Z,21.88
2023-02-08T18:59:39.406Z,20.90
2023-02-08T19:02:07.763Z,20.35
2023-02-08T19:04:41.991Z,20.60
2023-02-08T19:07:09.160Z,23.80
2023-02-08T19:09:39.488Z,20.67
2023-02-08T19:12:09.176Z,19.17
2023-02-08T19:14:35.932Z,21.33
2023-02-08T19:17:03.074Z,18.95
2023-02-08T19:19:29.816Z,19.17
2023-02-08T19:21:56.357Z,19.35
2023-02-08T19:24:23.129Z,19.67
2023-02-08T19:26:49.702Z,18.88
2023-02-08T19:29:21.778Z,18.50
2023-02-08T19:31:50.340Z,17.40
2023-02-08T19:34:17.818Z,18.05
2023-02-08T19:36:47.080Z,16.98
2023-02-08T19:39:22.435Z,18.13
2023-02-08T19:41:52.949Z,17.45
2023-02-08T19:44:20.542Z,17.33
2023-02-08T19:46:53.830Z,16.25
2023-02-08T19:49:25.662Z,17.15
2023-02-08T19:51:52.419Z,17.35
2023-02-08T19:54:19.663Z,18.27
2023-02-08T19:56:46.786Z,17.30
2023-02-08T19:59:19.209Z,18.30
2023-02-08T20:01:46.374Z,17.67
2023-02-08T20:04:14.573Z,17.67
2023-02-08T20:06:42.744Z,17.80
2023-02-08T20:09:09.276Z,19.13
2023-02-08T20:11:51.274Z,22.95
2023-02-08T20:14:25.456Z,18.88
2023-02-08T20:16:52.512Z,18.08
2023-02-08T20:19:19.043Z,19.02
2023-02-08T20:21:45.686Z,17.85
2023-02-08T20:24:12.197Z,15.95
2023-02-08T20:26:40.723Z,18.42
2023-02-08T20:29:08.327Z,16.23
2023-02-08T20:31:40.305Z,17.17
2023-02-08T20:34:09.628Z,15.30
2023-02-08T20:36:40.676Z,15.50
2023-02-08T20:39:09.289Z,16.25
2023-02-08T20:41:36.181Z,16.38
2023-02-08T20:44:02.673Z,17.73
2023-02-08T20:46:32.665Z,16.55
2023-02-08T20:49:00.898Z,17.25
2023-02-08T20:51:29.017Z,16.48
2023-02-08T20:53:59.117Z,18.25
2023-02-08T20:56:31.157Z,16.88
2023-02-08T20:59:06.481Z,17.02
2023-02-08T21:01:35.137Z,17.52
2023-02-08T21:04:02.596Z,17.77
2023-02-08T21:06:31.800Z,17.40
2023-02-08T21:09:00.443Z,15.77
2023-02-08T21:11:29.494Z,17.05
2023-02-08T21:13:56.819Z,17.38
2023-02-08T21:16:24.248Z,17.10
2023-02-08T21:18:51.158Z,17.23
2023-02-08T21:21:18.745Z,19.23
2023-02-08T21:23:46.095Z,17.00
2023-02-08T21:26:17.510Z,16.27
2023-02-08T21:28:44.559Z,18.95
2023-02-08T21:31:15.392Z,18.00
2023-02-08T21:33:43.493Z,18.05
2023-02-08T21:36:14.298Z,16.77
2023-02-08T21:38:41.209Z,16.13
2023-02-08T21:41:14.171Z,17.25
2023-02-08T21:43:40.741Z,17.02
2023-02-08T21:46:08.754Z,16.90
2023-02-08T21:48:55.513Z,16.13
2023-02-08T21:51:43.064Z,15.70
2023-02-08T21:54:30.464Z,16.35
2023-02-08T21:57:04.227Z,17.95
2023-02-08T21:59:35.202Z,17.85
2023-02-08T22:02:01.800Z,18.73
2023-02-08T22:04:28.378Z,19.85
2023-02-08T22:06:55.044Z,20.05
2023-02-08T22:09:21.452Z,19.65
2023-02-08T22:11:49.228Z,19.83
2023-02-08T22:14:16.034Z,20.52
2023-02-08T22:16:44.098Z,19.67
2023-02-08T22:19:10.555Z,20.35
2023-02-08T22:21:37.209Z,20.85
2023-02-08T22:24:03.859Z,20.65
2023-02-08T22:26:30.621Z,19.73
2023-02-08T22:28:57.105Z,20.00
2023-02-08T22:31:23.993Z,20.52
2023-02-08T22:33:53.424Z,18.77
2023-02-08T22:36:20.933Z,18.05
2023-02-08T22:38:47.694Z,18.75
2023-02-08T22:41:16.682Z,17.30
2023-02-08T22:43:43.724Z,19.00
2023-02-08T22:46:10.373Z,17.33
2023-02-08T22:48:37.607Z,17.05
2023-02-08T22:51:13.723Z,17.38
2023-02-08T22:53:40.705Z,17.25
2023-02-08T22:56:07.267Z,17.25
2023-02-08T22:58:34.057Z,18.33
2023-02-08T23:01:00.595Z,17.35
2023-02-08T23:03:27.366Z,18.92
2023-02-08T23:05:54.743Z,17.90
2023-02-08T23:08:22.552Z,18.48
2023-02-08T23:10:49.381Z,18.70
2023-02-08T23:13:16.227Z,18.75
2023-02-08T23:15:44.918Z,18.40
2023-02-08T23:18:11.648Z,18.67
2023-02-08T23:20:40.731Z,17.63
2023-02-08T23:23:08.677Z,19.33
2023-02-08T23:25:38.622Z,19.10
2023-02-08T23:28:05.805Z,17.95
2023-02-08T23:30:32.342Z,18.55
2023-02-08T23:32:58.849Z,19.17
2023-02-08T23:35:25.590Z,18.35
2023-02-08T23:37:52.230Z,19.55
2023-02-08T23:40:18.735Z,18.15
2023-02-08T23:42:45.242Z,20.25
2023-02-08T23:45:11.941Z,19.45
2023-02-08T23:47:39.530Z,18.25
2023-02-08T23:50:07.900Z,18.80
2023-02-08T23:52:35.836Z,17.80
2023-02-08T23:55:03.428Z,18.45
2023-02-08T23:57:36.975Z,18.48
